sensor_id;sensor_type;location;lat;lon;timestamp;temperature;humidity
37340;DHT22;23223;51.006;7.610;2023-09-18T00:02:11;19.70;99.90
37340;DHT22;23223;51.006;7.610;2023-09-18T00:04:37;19.70;99.90
37340;DHT22;23223;51.006;7.610;2023-09-18T00:07:03;19.60;99.90
37340;DHT22;23223;51.006;7.610;2023-09-18T00:09:29;19.40;99.90
37340;DHT22;23223;51.006;7.610;2023-09-18T00:11:54;19.50;99.90
37340;DHT22;23223;51.006;7.610;2023-09-18T00:14:20;19.50;99.90
37340;DHT22;23223;51.006;7.610;2023-09-18T00:16:45;19.50;99.90
37340;DHT22;23223;51.006;7.610;2023-09-18T00:19:11;19.30;99.90
37340;DHT22;23223;51.006;7.610;2023-09-18T00:21:37;19.00;99.90
37340;DHT22;23223;51.006;7.610;2023-09-18T00:24:03;18.80;99.90
37340;DHT22;23223;51.006;7.610;2023-09-18T00:26:29;19.00;99.90
37340;DHT22;23223;51.006;7.610;2023-09-18T00:28:54;19.20;99.90
37340;DHT22;23223;51.006;7.610;2023-09-18T00:31:20;19.30;99.90
37340;DHT22;23223;51.006;7.610;2023-09-18T00:33:45;19.20;99.90
37340;DHT22;23223;51.006;7.610;2023-09-18T00:36:11;19.10;99.90
37340;DHT22;23223;51.006;7.610;2023-09-18T00:38:37;19.20;99.90
37340;DHT22;23223;51.006;7.610;2023-09-18T00:41:03;19.10;99.90
37340;DHT22;23223;51.006;7.610;2023-09-18T00:43:28;19.00;99.90
37340;DHT22;23223;51.006;7.610;2023-09-18T00:45:54;19.10;99.90
37340;DHT22;23223;51.006;7.610;2023-09-18T00:48:20;19.30;99.90
37340;DHT22;23223;51.006;7.610;2023-09-18T00:50:46;19.50;99.90
37340;DHT22;23223;51.006;7.610;2023-09-18T00:53:16;19.80;99.90
37340;DHT22;23223;51.006;7.610;2023-09-18T00:55:43;19.80;99.90
37340;DHT22;23223;51.006;7.610;2023-09-18T00:58:09;19.80;99.90
37340;DHT22;23223;51.006;7.610;2023-09-18T01:00:35;19.80;99.90
37340;DHT22;23223;51.006;7.610;2023-09-18T01:03:01;19.90;99.90
37340;DHT22;23223;51.006;7.610;2023-09-18T01:05:33;20.00;99.90
37340;DHT22;23223;51.006;7.610;2023-09-18T01:07:59;20.10;99.90
37340;DHT22;23223;51.006;7.610;2023-09-18T01:10:29;20.30;99.90
37340;DHT22;23223;51.006;7.610;2023-09-18T01:13:07;20.30;99.90
37340;DHT22;23223;51.006;7.610;2023-09-18T01:15:44;20.40;99.90
37340;DHT22;23223;51.006;7.610;2023-09-18T01:18:13;20.50;99.90
37340;DHT22;23223;51.006;7.610;2023-09-18T01:20:39;20.60;99.90
37340;DHT22;23223;51.006;7.610;2023-09-18T01:23:05;20.60;99.90
37340;DHT22;23223;51.006;7.610;2023-09-18T01:25:31;20.60;99.90
37340;DHT22;23223;51.006;7.610;2023-09-18T01:27:58;20.70;99.90
37340;DHT22;23223;51.006;7.610;2023-09-18T01:30:24;20.70;99.90
37340;DHT22;23223;51.006;7.610;2023-09-18T01:32:50;20.70;99.90
37340;DHT22;23223;51.006;7.610;2023-09-18T01:35:16;20.70;99.90
37340;DHT22;23223;51.006;7.610;2023-09-18T01:37:42;20.80;99.90
37340;DHT22;23223;51.006;7.610;2023-09-18T01:40:09;20.80;99.90
37340;DHT22;23223;51.006;7.610;2023-09-18T01:42:36;20.80;99.90
37340;DHT22;23223;51.006;7.610;2023-09-18T01:45:03;20.80;99.90
37340;DHT22;23223;51.006;7.610;2023-09-18T01:47:30;20.70;99.90
37340;DHT22;23223;51.006;7.610;2023-09-18T01:49:56;20.80;99.90
37340;DHT22;23223;51.006;7.610;2023-09-18T01:52:22;20.80;99.90
37340;DHT22;23223;51.006;7.610;2023-09-18T01:54:53;20.70;99.90
37340;DHT22;23223;51.006;7.610;2023-09-18T01:57:19;20.80;99.90
37340;DHT22;23223;51.006;7.610;2023-09-18T01:59:44;20.90;99.90
37340;DHT22;23223;51.006;7.610;2023-09-18T02:02:10;21.00;99.90
37340;DHT22;23223;51.006;7.610;2023-09-18T02:04:37;21.00;99.90
37340;DHT22;23223;51.006;7.610;2023-09-18T02:07:03;20.90;99.90
37340;DHT22;23223;51.006;7.610;2023-09-18T02:09:29;20.90;99.90
37340;DHT22;23223;51.006;7.610;2023-09-18T02:11:54;20.80;99.90
37340;DHT22;23223;51.006;7.610;2023-09-18T02:14:20;20.80;99.90
37340;DHT22;23223;51.006;7.610;2023-09-18T02:16:45;20.90;99.90
37340;DHT22;23223;51.006;7.610;2023-09-18T02:19:13;21.00;99.90
37340;DHT22;23223;51.006;7.610;2023-09-18T02:21:39;21.10;99.90
37340;DHT22;23223;51.006;7.610;2023-09-18T02:24:05;21.00;99.90
37340;DHT22;23223;51.006;7.610;2023-09-18T02:26:31;20.80;99.90
37340;DHT22;23223;51.006;7.610;2023-09-18T02:29:03;20.60;99.90
37340;DHT22;23223;51.006;7.610;2023-09-18T02:31:29;20.80;99.90
37340;DHT22;23223;51.006;7.610;2023-09-18T02:33:56;20.80;99.90
37340;DHT22;23223;51.006;7.610;2023-09-18T02:36:21;20.90;99.90
37340;DHT22;23223;51.006;7.610;2023-09-18T02:38:47;21.00;99.90
37340;DHT22;23223;51.006;7.610;2023-09-18T02:41:13;21.10;99.90
37340;DHT22;23223;51.006;7.610;2023-09-18T02:43:38;21.20;99.90
37340;DHT22;23223;51.006;7.610;2023-09-18T02:46:05;21.30;99.90
37340;DHT22;23223;51.006;7.610;2023-09-18T02:48:31;21.30;99.90
37340;DHT22;23223;51.006;7.610;2023-09-18T02:51:01;21.30;99.90
37340;DHT22;23223;51.006;7.610;2023-09-18T02:53:27;21.30;99.90
37340;DHT22;23223;51.006;7.610;2023-09-18T02:55:54;21.40;99.90
37340;DHT22;23223;51.006;7.610;2023-09-18T02:58:21;21.40;99.90
37340;DHT22;23223;51.006;7.610;2023-09-18T03:00:49;21.40;99.90
37340;DHT22;23223;51.006;7.610;2023-09-18T03:03:15;21.40;99.90
37340;DHT22;23223;51.006;7.610;2023-09-18T03:05:42;21.40;99.90
37340;DHT22;23223;51.006;7.610;2023-09-18T03:08:08;21.50;99.90
37340;DHT22;23223;51.006;7.610;2023-09-18T03:10:40;21.30;99.90
37340;DHT22;23223;51.006;7.610;2023-09-18T03:13:07;21.20;99.90
37340;DHT22;23223;51.006;7.610;2023-09-18T03:15:34;21.00;99.90
37340;DHT22;23223;51.006;7.610;2023-09-18T03:18:01;20.80;99.90
37340;DHT22;23223;51.006;7.610;2023-09-18T03:20:28;20.60;99.90
37340;DHT22;23223;51.006;7.610;2023-09-18T03:22:58;20.50;99.90
37340;DHT22;23223;51.006;7.610;2023-09-18T03:25:24;20.40;99.90
37340;DHT22;23223;51.006;7.610;2023-09-18T03:27:52;20.30;99.90
37340;DHT22;23223;51.006;7.610;2023-09-18T03:30:18;20.30;99.90
37340;DHT22;23223;51.006;7.610;2023-09-18T03:32:44;20.40;99.90
37340;DHT22;23223;51.006;7.610;2023-09-18T03:35:11;20.50;99.90
37340;DHT22;23223;51.006;7.610;2023-09-18T03:37:53;20.60;99.90
37340;DHT22;23223;51.006;7.610;2023-09-18T03:40:20;20.70;99.90
37340;DHT22;23223;51.006;7.610;2023-09-18T03:42:46;20.80;99.90
37340;DHT22;23223;51.006;7.610;2023-09-18T03:45:12;20.60;99.90
37340;DHT22;23223;51.006;7.610;2023-09-18T03:47:39;20.30;99.90
37340;DHT22;23223;51.006;7.610;2023-09-18T03:50:06;20.30;99.90
37340;DHT22;23223;51.006;7.610;2023-09-18T03:52:36;20.30;99.90
37340;DHT22;23223;51.006;7.610;2023-09-18T03:55:02;20.30;99.90
37340;DHT22;23223;51.006;7.610;2023-09-18T03:57:28;20.20;99.90
37340;DHT22;23223;51.006;7.610;2023-09-18T03:59:53;20.30;99.90
37340;DHT22;23223;51.006;7.610;2023-09-18T04:02:20;20.40;99.90
37340;DHT22;23223;51.006;7.610;2023-09-18T04:04:45;20.60;99.90
37340;DHT22;23223;51.006;7.610;2023-09-18T04:07:11;20.70;99.90
37340;DHT22;23223;51.006;7.610;2023-09-18T04:09:37;20.70;99.90
37340;DHT22;23223;51.006;7.610;2023-09-18T04:12:04;20.70;99.90
37340;DHT22;23223;51.006;7.610;2023-09-18T04:14:33;20.70;99.90
37340;DHT22;23223;51.006;7.610;2023-09-18T04:17:02;20.80;99.90
37340;DHT22;23223;51.006;7.610;2023-09-18T04:19:28;20.70;99.90
37340;DHT22;23223;51.006;7.610;2023-09-18T04:21:54;20.70;99.90
37340;DHT22;23223;51.006;7.610;2023-09-18T04:24:19;20.70;99.90
37340;DHT22;23223;51.006;7.610;2023-09-18T04:26:45;20.60;99.90
37340;DHT22;23223;51.006;7.610;2023-09-18T04:29:11;20.50;99.90
37340;DHT22;23223;51.006;7.610;2023-09-18T04:31:36;20.40;99.90
37340;DHT22;23223;51.006;7.610;2023-09-18T04:34:03;20.30;99.90
37340;DHT22;23223;51.006;7.610;2023-09-18T04:36:29;20.30;99.90
37340;DHT22;23223;51.006;7.610;2023-09-18T04:38:55;20.30;99.90
37340;DHT22;23223;51.006;7.610;2023-09-18T04:41:20;20.20;99.90
37340;DHT22;23223;51.006;7.610;2023-09-18T04:43:46;20.30;99.90
37340;DHT22;23223;51.006;7.610;2023-09-18T04:46:12;20.30;99.90
37340;DHT22;23223;51.006;7.610;2023-09-18T04:48:37;20.30;99.90
37340;DHT22;23223;51.006;7.610;2023-09-18T04:51:04;20.40;99.90
37340;DHT22;23223;51.006;7.610;2023-09-18T04:53:30;20.50;99.90
37340;DHT22;23223;51.006;7.610;2023-09-18T04:55:56;20.40;99.90
37340;DHT22;23223;51.006;7.610;2023-09-18T04:58:21;20.30;99.90
37340;DHT22;23223;51.006;7.610;2023-09-18T05:00:54;20.30;99.90
37340;DHT22;23223;51.006;7.610;2023-09-18T05:03:20;20.10;99.90
37340;DHT22;23223;51.006;7.610;2023-09-18T05:05:46;20.10;99.90
37340;DHT22;23223;51.006;7.610;2023-09-18T05:08:12;20.10;99.90
37340;DHT22;23223;51.006;7.610;2023-09-18T05:10:37;20.10;99.90
37340;DHT22;23223;51.006;7.610;2023-09-18T05:13:03;20.20;99.90
37340;DHT22;23223;51.006;7.610;2023-09-18T05:15:30;20.20;99.90
37340;DHT22;23223;51.006;7.610;2023-09-18T05:17:56;20.10;99.90
37340;DHT22;23223;51.006;7.610;2023-09-18T05:20:24;20.00;99.90
37340;DHT22;23223;51.006;7.610;2023-09-18T05:22:51;20.00;99.90
37340;DHT22;23223;51.006;7.610;2023-09-18T05:25:21;20.10;99.90
37340;DHT22;23223;51.006;7.610;2023-09-18T05:27:48;20.10;99.90
37340;DHT22;23223;51.006;7.610;2023-09-18T05:30:17;20.00;99.90
37340;DHT22;23223;51.006;7.610;2023-09-18T05:32:43;20.00;99.90
37340;DHT22;23223;51.006;7.610;2023-09-18T05:35:09;19.80;99.90
37340;DHT22;23223;51.006;7.610;2023-09-18T05:37:42;19.80;99.90
37340;DHT22;23223;51.006;7.610;2023-09-18T05:40:11;19.90;99.90
37340;DHT22;23223;51.006;7.610;2023-09-18T05:42:38;19.90;99.90
37340;DHT22;23223;51.006;7.610;2023-09-18T05:45:05;19.80;99.90
37340;DHT22;23223;51.006;7.610;2023-09-18T05:47:33;19.80;99.90
37340;DHT22;23223;51.006;7.610;2023-09-18T05:50:07;19.80;99.90
37340;DHT22;23223;51.006;7.610;2023-09-18T05:52:33;19.80;99.90
37340;DHT22;23223;51.006;7.610;2023-09-18T05:55:00;19.80;99.90
37340;DHT22;23223;51.006;7.610;2023-09-18T05:57:26;19.80;99.90
37340;DHT22;23223;51.006;7.610;2023-09-18T05:59:57;19.80;99.90
37340;DHT22;23223;51.006;7.610;2023-09-18T06:02:23;19.80;99.90
37340;DHT22;23223;51.006;7.610;2023-09-18T06:04:54;19.90;99.90
37340;DHT22;23223;51.006;7.610;2023-09-18T06:07:21;19.90;99.90
37340;DHT22;23223;51.006;7.610;2023-09-18T06:09:48;19.90;99.90
37340;DHT22;23223;51.006;7.610;2023-09-18T06:12:14;19.90;99.90
37340;DHT22;23223;51.006;7.610;2023-09-18T06:14:39;19.90;99.90
37340;DHT22;23223;51.006;7.610;2023-09-18T06:17:05;19.90;99.90
37340;DHT22;23223;51.006;7.610;2023-09-18T06:19:31;20.00;99.90
37340;DHT22;23223;51.006;7.610;2023-09-18T06:21:58;20.10;99.90
37340;DHT22;23223;51.006;7.610;2023-09-18T06:24:23;20.00;99.90
37340;DHT22;23223;51.006;7.610;2023-09-18T06:26:49;20.10;99.90
37340;DHT22;23223;51.006;7.610;2023-09-18T06:29:16;20.10;99.90
37340;DHT22;23223;51.006;7.610;2023-09-18T06:31:42;20.00;99.90
37340;DHT22;23223;51.006;7.610;2023-09-18T06:34:07;20.10;99.90
37340;DHT22;23223;51.006;7.610;2023-09-18T06:36:33;20.10;99.90
37340;DHT22;23223;51.006;7.610;2023-09-18T06:38:59;20.00;99.90
37340;DHT22;23223;51.006;7.610;2023-09-18T06:41:24;20.00;99.90
37340;DHT22;23223;51.006;7.610;2023-09-18T06:43:50;20.00;99.90
37340;DHT22;23223;51.006;7.610;2023-09-18T06:46:16;20.10;99.90
37340;DHT22;23223;51.006;7.610;2023-09-18T06:48:41;20.00;99.90
37340;DHT22;23223;51.006;7.610;2023-09-18T06:51:14;20.10;99.90
37340;DHT22;23223;51.006;7.610;2023-09-18T06:53:40;20.20;99.90
37340;DHT22;23223;51.006;7.610;2023-09-18T06:56:06;20.10;99.90
37340;DHT22;23223;51.006;7.610;2023-09-18T06:58:31;20.10;99.90
37340;DHT22;23223;51.006;7.610;2023-09-18T07:00:57;20.20;99.90
37340;DHT22;23223;51.006;7.610;2023-09-18T07:03:23;20.30;99.90
37340;DHT22;23223;51.006;7.610;2023-09-18T07:05:49;20.30;99.90
37340;DHT22;23223;51.006;7.610;2023-09-18T07:08:15;20.30;99.90
37340;DHT22;23223;51.006;7.610;2023-09-18T07:10:44;20.30;99.90
37340;DHT22;23223;51.006;7.610;2023-09-18T07:13:10;20.40;99.90
37340;DHT22;23223;51.006;7.610;2023-09-18T07:15:37;20.40;99.90
37340;DHT22;23223;51.006;7.610;2023-09-18T07:18:03;20.30;99.90
37340;DHT22;23223;51.006;7.610;2023-09-18T07:20:28;20.20;99.90
37340;DHT22;23223;51.006;7.610;2023-09-18T07:22:58;20.20;99.90
37340;DHT22;23223;51.006;7.610;2023-09-18T07:25:24;20.20;99.90
37340;DHT22;23223;51.006;7.610;2023-09-18T07:27:50;20.30;99.90
37340;DHT22;23223;51.006;7.610;2023-09-18T07:30:15;20.40;99.90
37340;DHT22;23223;51.006;7.610;2023-09-18T07:32:46;20.30;99.90
37340;DHT22;23223;51.006;7.610;2023-09-18T07:35:12;20.20;99.90
37340;DHT22;23223;51.006;7.610;2023-09-18T07:37:40;20.20;99.90
37340;DHT22;23223;51.006;7.610;2023-09-18T07:40:06;20.00;99.90
37340;DHT22;23223;51.006;7.610;2023-09-18T07:42:32;20.00;99.90
37340;DHT22;23223;51.006;7.610;2023-09-18T07:44:58;20.10;99.90
37340;DHT22;23223;51.006;7.610;2023-09-18T07:47:24;20.10;99.90
37340;DHT22;23223;51.006;7.610;2023-09-18T07:49:49;20.10;99.90
37340;DHT22;23223;51.006;7.610;2023-09-18T07:52:16;20.10;99.90
37340;DHT22;23223;51.006;7.610;2023-09-18T07:54:43;20.30;99.90
37340;DHT22;23223;51.006;7.610;2023-09-18T07:57:09;20.30;99.90
37340;DHT22;23223;51.006;7.610;2023-09-18T07:59:36;20.30;99.90
37340;DHT22;23223;51.006;7.610;2023-09-18T08:02:02;20.40;99.90
37340;DHT22;23223;51.006;7.610;2023-09-18T08:04:27;20.50;99.90
37340;DHT22;23223;51.006;7.610;2023-09-18T08:06:56;20.50;99.90
37340;DHT22;23223;51.006;7.610;2023-09-18T08:09:21;20.70;99.90
37340;DHT22;23223;51.006;7.610;2023-09-18T08:11:47;20.90;99.90
37340;DHT22;23223;51.006;7.610;2023-09-18T08:14:15;20.90;99.90
37340;DHT22;23223;51.006;7.610;2023-09-18T08:16:41;21.10;99.90
37340;DHT22;23223;51.006;7.610;2023-09-18T08:19:06;21.30;99.90
37340;DHT22;23223;51.006;7.610;2023-09-18T08:21:32;21.50;99.90
37340;DHT22;23223;51.006;7.610;2023-09-18T08:24:00;21.50;99.90
37340;DHT22;23223;51.006;7.610;2023-09-18T08:26:26;21.70;99.90
37340;DHT22;23223;51.006;7.610;2023-09-18T08:28:54;21.80;99.90
37340;DHT22;23223;51.006;7.610;2023-09-18T08:31:19;21.90;99.90
37340;DHT22;23223;51.006;7.610;2023-09-18T08:33:45;22.00;99.90
37340;DHT22;23223;51.006;7.610;2023-09-18T08:36:11;22.10;99.90
37340;DHT22;23223;51.006;7.610;2023-09-18T08:38:38;22.30;99.90
37340;DHT22;23223;51.006;7.610;2023-09-18T08:41:03;22.80;99.90
37340;DHT22;23223;51.006;7.610;2023-09-18T08:43:31;23.20;99.90
37340;DHT22;23223;51.006;7.610;2023-09-18T08:45:57;23.20;99.90
37340;DHT22;23223;51.006;7.610;2023-09-18T08:48:28;23.30;99.90
37340;DHT22;23223;51.006;7.610;2023-09-18T08:51:03;23.00;99.90
37340;DHT22;23223;51.006;7.610;2023-09-18T08:53:35;22.90;99.90
37340;DHT22;23223;51.006;7.610;2023-09-18T08:56:01;22.70;99.90
37340;DHT22;23223;51.006;7.610;2023-09-18T08:58:35;22.50;99.90
37340;DHT22;23223;51.006;7.610;2023-09-18T09:01:03;22.30;99.90
37340;DHT22;23223;51.006;7.610;2023-09-18T09:03:31;22.20;99.90
37340;DHT22;23223;51.006;7.610;2023-09-18T09:05:59;22.10;99.90
37340;DHT22;23223;51.006;7.610;2023-09-18T09:08:28;22.10;99.90
37340;DHT22;23223;51.006;7.610;2023-09-18T09:10:53;22.10;99.90
37340;DHT22;23223;51.006;7.610;2023-09-18T09:13:19;22.10;99.90
37340;DHT22;23223;51.006;7.610;2023-09-18T09:15:52;22.20;99.90
37340;DHT22;23223;51.006;7.610;2023-09-18T09:18:19;22.40;99.90
37340;DHT22;23223;51.006;7.610;2023-09-18T09:20:56;22.70;99.90
37340;DHT22;23223;51.006;7.610;2023-09-18T09:23:29;23.10;99.90
37340;DHT22;23223;51.006;7.610;2023-09-18T09:26:12;23.70;99.90
37340;DHT22;23223;51.006;7.610;2023-09-18T09:28:38;24.50;99.90
37340;DHT22;23223;51.006;7.610;2023-09-18T09:31:04;25.10;99.90
37340;DHT22;23223;51.006;7.610;2023-09-18T09:33:30;25.40;99.90
37340;DHT22;23223;51.006;7.610;2023-09-18T09:35:57;25.80;99.90
37340;DHT22;23223;51.006;7.610;2023-09-18T09:38:30;26.00;99.90
37340;DHT22;23223;51.006;7.610;2023-09-18T09:41:03;25.80;99.90
37340;DHT22;23223;51.006;7.610;2023-09-18T09:43:32;25.90;99.90
37340;DHT22;23223;51.006;7.610;2023-09-18T09:46:02;26.10;99.90
37340;DHT22;23223;51.006;7.610;2023-09-18T09:48:29;26.20;99.90
37340;DHT22;23223;51.006;7.610;2023-09-18T09:51:00;26.10;99.90
37340;DHT22;23223;51.006;7.610;2023-09-18T09:53:45;25.90;99.90
37340;DHT22;23223;51.006;7.610;2023-09-18T09:56:13;26.00;99.90
37340;DHT22;23223;51.006;7.610;2023-09-18T09:58:39;25.90;99.90
37340;DHT22;23223;51.006;7.610;2023-09-18T10:01:11;25.60;99.90
37340;DHT22;23223;51.006;7.610;2023-09-18T10:03:43;25.30;99.90
37340;DHT22;23223;51.006;7.610;2023-09-18T10:06:09;24.60;99.90
37340;DHT22;23223;51.006;7.610;2023-09-18T10:08:38;24.20;99.90
37340;DHT22;23223;51.006;7.610;2023-09-18T10:11:09;23.90;99.90
37340;DHT22;23223;51.006;7.610;2023-09-18T10:16:19;23.20;99.90
37340;DHT22;23223;51.006;7.610;2023-09-18T10:23:57;22.50;99.90
37340;DHT22;23223;51.006;7.610;2023-09-18T10:26:25;22.30;99.90
37340;DHT22;23223;51.006;7.610;2023-09-18T10:28:56;22.00;99.90
37340;DHT22;23223;51.006;7.610;2023-09-18T10:31:28;21.90;99.90
37340;DHT22;23223;51.006;7.610;2023-09-18T10:33:56;21.90;99.90
37340;DHT22;23223;51.006;7.610;2023-09-18T10:36:24;22.20;99.90
37340;DHT22;23223;51.006;7.610;2023-09-18T10:38:51;22.60;99.90
37340;DHT22;23223;51.006;7.610;2023-09-18T10:41:20;22.90;99.90
37340;DHT22;23223;51.006;7.610;2023-09-18T10:43:46;23.30;99.90
37340;DHT22;23223;51.006;7.610;2023-09-18T10:46:14;23.50;99.90
37340;DHT22;23223;51.006;7.610;2023-09-18T10:48:43;24.30;99.90
37340;DHT22;23223;51.006;7.610;2023-09-18T10:51:10;25.30;99.90
37340;DHT22;23223;51.006;7.610;2023-09-18T10:53:36;25.90;99.90
37340;DHT22;23223;51.006;7.610;2023-09-18T10:56:02;26.20;99.90
37340;DHT22;23223;51.006;7.610;2023-09-18T10:58:33;26.10;95.70
37340;DHT22;23223;51.006;7.610;2023-09-18T11:01:02;26.00;99.90
37340;DHT22;23223;51.006;7.610;2023-09-18T11:03:29;25.60;99.90
37340;DHT22;23223;51.006;7.610;2023-09-18T11:06:06;25.30;99.90
37340;DHT22;23223;51.006;7.610;2023-09-18T11:08:32;25.50;99.90
37340;DHT22;23223;51.006;7.610;2023-09-18T11:11:02;25.60;99.90
37340;DHT22;23223;51.006;7.610;2023-09-18T11:13:44;25.30;99.90
37340;DHT22;23223;51.006;7.610;2023-09-18T11:16:16;25.10;99.90
37340;DHT22;23223;51.006;7.610;2023-09-18T11:18:42;24.50;99.90
37340;DHT22;23223;51.006;7.610;2023-09-18T11:21:11;24.30;99.90
37340;DHT22;23223;51.006;7.610;2023-09-18T11:23:39;24.10;99.90
37340;DHT22;23223;51.006;7.610;2023-09-18T11:26:11;24.10;99.90
37340;DHT22;23223;51.006;7.610;2023-09-18T11:28:37;24.40;99.90
37340;DHT22;23223;51.006;7.610;2023-09-18T11:31:04;24.70;99.90
37340;DHT22;23223;51.006;7.610;2023-09-18T11:33:37;24.40;99.90
37340;DHT22;23223;51.006;7.610;2023-09-18T11:36:14;24.20;99.90
37340;DHT22;23223;51.006;7.610;2023-09-18T11:38:55;24.10;99.90
37340;DHT22;23223;51.006;7.610;2023-09-18T11:41:29;24.00;99.90
37340;DHT22;23223;51.006;7.610;2023-09-18T11:46:35;24.00;99.90
37340;DHT22;23223;51.006;7.610;2023-09-18T11:49:03;24.40;99.90
37340;DHT22;23223;51.006;7.610;2023-09-18T11:51:31;25.30;99.90
37340;DHT22;23223;51.006;7.610;2023-09-18T11:53:58;26.40;99.90
37340;DHT22;23223;51.006;7.610;2023-09-18T11:56:24;27.60;89.40
37340;DHT22;23223;51.006;7.610;2023-09-18T11:58:51;28.40;57.80
37340;DHT22;23223;51.006;7.610;2023-09-18T12:01:18;28.60;34.30
37340;DHT22;23223;51.006;7.610;2023-09-18T12:03:44;28.40;39.70
37340;DHT22;23223;51.006;7.610;2023-09-18T12:06:11;28.70;35.20
37340;DHT22;23223;51.006;7.610;2023-09-18T12:08:39;28.80;51.70
37340;DHT22;23223;51.006;7.610;2023-09-18T12:11:06;28.40;33.50
37340;DHT22;23223;51.006;7.610;2023-09-18T12:13:32;27.40;54.90
37340;DHT22;23223;51.006;7.610;2023-09-18T12:16:03;27.00;70.80
37340;DHT22;23223;51.006;7.610;2023-09-18T12:18:33;26.70;82.20
37340;DHT22;23223;51.006;7.610;2023-09-18T12:21:01;26.70;86.80
37340;DHT22;23223;51.006;7.610;2023-09-18T12:23:36;27.30;48.30
37340;DHT22;23223;51.006;7.610;2023-09-18T12:26:02;27.90;56.30
37340;DHT22;23223;51.006;7.610;2023-09-18T12:28:29;28.80;24.30
37340;DHT22;23223;51.006;7.610;2023-09-18T12:30:55;29.70;20.80
37340;DHT22;23223;51.006;7.610;2023-09-18T12:33:22;30.00;1.00
37340;DHT22;23223;51.006;7.610;2023-09-18T12:35:49;30.20;1.00
37340;DHT22;23223;51.006;7.610;2023-09-18T12:38:18;30.20;1.00
37340;DHT22;23223;51.006;7.610;2023-09-18T12:40:52;29.90;1.00
37340;DHT22;23223;51.006;7.610;2023-09-18T12:43:20;29.60;1.00
37340;DHT22;23223;51.006;7.610;2023-09-18T12:45:48;29.20;1.00
37340;DHT22;23223;51.006;7.610;2023-09-18T12:48:15;29.10;1.00
37340;DHT22;23223;51.006;7.610;2023-09-18T12:50:41;29.40;1.00
37340;DHT22;23223;51.006;7.610;2023-09-18T12:53:12;30.00;1.00
37340;DHT22;23223;51.006;7.610;2023-09-18T12:55:38;30.30;1.00
37340;DHT22;23223;51.006;7.610;2023-09-18T12:58:05;30.80;1.00
37340;DHT22;23223;51.006;7.610;2023-09-18T13:00:34;30.90;1.00
37340;DHT22;23223;51.006;7.610;2023-09-18T13:03:00;30.50;1.00
37340;DHT22;23223;51.006;7.610;2023-09-18T13:05:26;29.90;1.00
37340;DHT22;23223;51.006;7.610;2023-09-18T13:07:53;29.00;1.00
37340;DHT22;23223;51.006;7.610;2023-09-18T13:10:19;28.50;1.00
37340;DHT22;23223;51.006;7.610;2023-09-18T13:12:50;28.00;1.00
37340;DHT22;23223;51.006;7.610;2023-09-18T13:15:47;28.20;1.00
37340;DHT22;23223;51.006;7.610;2023-09-18T13:18:14;28.30;1.00
37340;DHT22;23223;51.006;7.610;2023-09-18T13:20:40;28.80;1.00
37340;DHT22;23223;51.006;7.610;2023-09-18T13:23:06;29.20;1.00
37340;DHT22;23223;51.006;7.610;2023-09-18T13:25:35;29.20;1.00
37340;DHT22;23223;51.006;7.610;2023-09-18T13:28:04;29.40;1.00
37340;DHT22;23223;51.006;7.610;2023-09-18T13:30:30;29.30;1.00
37340;DHT22;23223;51.006;7.610;2023-09-18T13:33:13;29.90;1.00
37340;DHT22;23223;51.006;7.610;2023-09-18T13:35:43;30.20;1.00
37340;DHT22;23223;51.006;7.610;2023-09-18T13:38:09;30.20;1.00
37340;DHT22;23223;51.006;7.610;2023-09-18T13:40:40;30.00;1.00
37340;DHT22;23223;51.006;7.610;2023-09-18T13:43:07;29.70;1.00
37340;DHT22;23223;51.006;7.610;2023-09-18T13:45:33;29.30;1.00
37340;DHT22;23223;51.006;7.610;2023-09-18T13:48:03;29.40;1.00
37340;DHT22;23223;51.006;7.610;2023-09-18T13:50:29;29.30;1.00
37340;DHT22;23223;51.006;7.610;2023-09-18T13:52:55;29.00;1.00
37340;DHT22;23223;51.006;7.610;2023-09-18T13:55:20;28.80;1.00
37340;DHT22;23223;51.006;7.610;2023-09-18T13:57:46;29.50;1.00
37340;DHT22;23223;51.006;7.610;2023-09-18T14:00:12;30.00;1.00
37340;DHT22;23223;51.006;7.610;2023-09-18T14:02:39;30.70;1.00
37340;DHT22;23223;51.006;7.610;2023-09-18T14:05:06;31.20;1.00
37340;DHT22;23223;51.006;7.610;2023-09-18T14:07:32;31.00;1.00
37340;DHT22;23223;51.006;7.610;2023-09-18T14:09:58;31.30;1.00
37340;DHT22;23223;51.006;7.610;2023-09-18T14:12:24;31.40;1.00
37340;DHT22;23223;51.006;7.610;2023-09-18T14:14:50;31.70;1.00
37340;DHT22;23223;51.006;7.610;2023-09-18T14:17:16;32.00;1.00
37340;DHT22;23223;51.006;7.610;2023-09-18T14:19:43;32.00;1.00
37340;DHT22;23223;51.006;7.610;2023-09-18T14:22:09;32.10;1.00
37340;DHT22;23223;51.006;7.610;2023-09-18T14:24:38;32.00;1.00
37340;DHT22;23223;51.006;7.610;2023-09-18T14:27:04;31.90;1.00
37340;DHT22;23223;51.006;7.610;2023-09-18T14:29:30;31.80;1.00
37340;DHT22;23223;51.006;7.610;2023-09-18T14:31:56;31.60;1.00
37340;DHT22;23223;51.006;7.610;2023-09-18T14:34:22;30.80;1.00
37340;DHT22;23223;51.006;7.610;2023-09-18T14:36:50;30.50;1.00
37340;DHT22;23223;51.006;7.610;2023-09-18T14:39:16;30.10;1.00
37340;DHT22;23223;51.006;7.610;2023-09-18T14:41:41;29.60;1.00
37340;DHT22;23223;51.006;7.610;2023-09-18T14:44:09;29.50;1.00
37340;DHT22;23223;51.006;7.610;2023-09-18T14:46:35;29.50;1.00
37340;DHT22;23223;51.006;7.610;2023-09-18T14:49:03;29.30;1.00
37340;DHT22;23223;51.006;7.610;2023-09-18T14:51:29;29.00;1.00
37340;DHT22;23223;51.006;7.610;2023-09-18T14:53:58;28.90;1.00
37340;DHT22;23223;51.006;7.610;2023-09-18T14:56:27;28.50;1.00
37340;DHT22;23223;51.006;7.610;2023-09-18T14:58:53;28.50;1.00
37340;DHT22;23223;51.006;7.610;2023-09-18T15:01:23;28.90;1.00
37340;DHT22;23223;51.006;7.610;2023-09-18T15:03:50;29.30;1.00
37340;DHT22;23223;51.006;7.610;2023-09-18T15:06:17;29.20;1.00
37340;DHT22;23223;51.006;7.610;2023-09-18T15:08:46;29.30;1.00
37340;DHT22;23223;51.006;7.610;2023-09-18T15:11:13;29.30;1.00
37340;DHT22;23223;51.006;7.610;2023-09-18T15:13:42;29.00;1.00
37340;DHT22;23223;51.006;7.610;2023-09-18T15:16:08;28.90;1.00
37340;DHT22;23223;51.006;7.610;2023-09-18T15:18:34;28.90;1.00
37340;DHT22;23223;51.006;7.610;2023-09-18T15:20:59;28.40;1.00
37340;DHT22;23223;51.006;7.610;2023-09-18T15:23:25;27.90;1.00
37340;DHT22;23223;51.006;7.610;2023-09-18T15:25:52;27.30;1.00
37340;DHT22;23223;51.006;7.610;2023-09-18T15:28:21;27.00;1.00
37340;DHT22;23223;51.006;7.610;2023-09-18T15:30:49;26.80;1.00
37340;DHT22;23223;51.006;7.610;2023-09-18T15:33:15;27.00;1.00
37340;DHT22;23223;51.006;7.610;2023-09-18T15:35:43;27.30;1.00
37340;DHT22;23223;51.006;7.610;2023-09-18T15:38:08;27.20;1.00
37340;DHT22;23223;51.006;7.610;2023-09-18T15:40:34;27.40;1.00
37340;DHT22;23223;51.006;7.610;2023-09-18T15:43:00;27.30;1.00
37340;DHT22;23223;51.006;7.610;2023-09-18T15:45:25;27.20;1.00
37340;DHT22;23223;51.006;7.610;2023-09-18T15:47:51;27.00;1.00